sensor_id;sensor_type;location;lat;lon;timestamp;temperature;humidity
40374;DHT22;26079;45.958;12.492;2023-05-10T00:01:37;16.00;71.10
40374;DHT22;26079;45.958;12.492;2023-05-10T00:04:03;16.00;71.20
40374;DHT22;26079;45.958;12.492;2023-05-10T00:06:29;16.00;70.90
40374;DHT22;26079;45.958;12.492;2023-05-10T00:08:55;16.00;71.00
40374;DHT22;26079;45.958;12.492;2023-05-10T00:11:21;16.00;69.80
40374;DHT22;26079;45.958;12.492;2023-05-10T00:13:46;16.00;70.20
40374;DHT22;26079;45.958;12.492;2023-05-10T00:16:12;16.00;70.80
40374;DHT22;26079;45.958;12.492;2023-05-10T00:18:39;16.00;69.70
40374;DHT22;26079;45.958;12.492;2023-05-10T00:21:05;16.00;69.90
40374;DHT22;26079;45.958;12.492;2023-05-10T00:23:30;16.00;70.20
40374;DHT22;26079;45.958;12.492;2023-05-10T00:25:56;16.00;69.30
40374;DHT22;26079;45.958;12.492;2023-05-10T00:28:22;16.00;69.40
40374;DHT22;26079;45.958;12.492;2023-05-10T00:30:47;16.00;69.70
40374;DHT22;26079;45.958;12.492;2023-05-10T00:33:13;16.00;69.50
40374;DHT22;26079;45.958;12.492;2023-05-10T00:35:39;16.00;69.20
40374;DHT22;26079;45.958;12.492;2023-05-10T00:38:04;16.00;69.30
40374;DHT22;26079;45.958;12.492;2023-05-10T00:40:30;16.00;68.90
40374;DHT22;26079;45.958;12.492;2023-05-10T00:42:57;16.00;69.20
40374;DHT22;26079;45.958;12.492;2023-05-10T00:45:24;16.00;69.90
40374;DHT22;26079;45.958;12.492;2023-05-10T00:47:50;16.00;70.00
40374;DHT22;26079;45.958;12.492;2023-05-10T00:50:21;16.00;70.00
40374;DHT22;26079;45.958;12.492;2023-05-10T00:52:47;15.90;69.10
40374;DHT22;26079;45.958;12.492;2023-05-10T00:55:12;15.90;68.90
40374;DHT22;26079;45.958;12.492;2023-05-10T00:57:38;15.90;69.50
40374;DHT22;26079;45.958;12.492;2023-05-10T01:00:05;15.90;69.80
40374;DHT22;26079;45.958;12.492;2023-05-10T01:02:31;15.80;70.30
40374;DHT22;26079;45.958;12.492;2023-05-10T01:04:59;15.90;69.30
40374;DHT22;26079;45.958;12.492;2023-05-10T01:07:25;15.90;71.00
40374;DHT22;26079;45.958;12.492;2023-05-10T01:09:51;15.80;69.00
40374;DHT22;26079;45.958;12.492;2023-05-10T01:12:16;15.80;68.70
40374;DHT22;26079;45.958;12.492;2023-05-10T01:14:42;15.80;69.40
40374;DHT22;26079;45.958;12.492;2023-05-10T01:17:08;15.80;69.70
40374;DHT22;26079;45.958;12.492;2023-05-10T01:19:35;15.80;69.20
40374;DHT22;26079;45.958;12.492;2023-05-10T01:30:28;15.70;69.50
40374;DHT22;26079;45.958;12.492;2023-05-10T01:33:22;15.70;70.50
40374;DHT22;26079;45.958;12.492;2023-05-10T01:35:58;15.70;70.10
40374;DHT22;26079;45.958;12.492;2023-05-10T01:46:43;15.70;69.70
40374;DHT22;26079;45.958;12.492;2023-05-10T01:49:23;15.70;70.60
40374;DHT22;26079;45.958;12.492;2023-05-10T01:51:52;15.70;70.40
40374;DHT22;26079;45.958;12.492;2023-05-10T01:54:21;15.60;70.20
40374;DHT22;26079;45.958;12.492;2023-05-10T01:56:50;15.60;71.60
40374;DHT22;26079;45.958;12.492;2023-05-10T01:59:19;15.60;71.90
40374;DHT22;26079;45.958;12.492;2023-05-10T02:01:46;15.60;72.30
40374;DHT22;26079;45.958;12.492;2023-05-10T02:04:15;15.60;71.60
40374;DHT22;26079;45.958;12.492;2023-05-10T02:06:43;15.60;71.80
40374;DHT22;26079;45.958;12.492;2023-05-10T02:09:11;15.50;71.30
40374;DHT22;26079;45.958;12.492;2023-05-10T02:11:42;15.50;72.10
40374;DHT22;26079;45.958;12.492;2023-05-10T02:14:09;15.50;73.00
40374;DHT22;26079;45.958;12.492;2023-05-10T02:16:38;15.50;74.10
40374;DHT22;26079;45.958;12.492;2023-05-10T02:19:05;15.50;74.10
40374;DHT22;26079;45.958;12.492;2023-05-10T02:21:31;15.50;75.00
40374;DHT22;26079;45.958;12.492;2023-05-10T02:23:59;15.40;76.60
40374;DHT22;26079;45.958;12.492;2023-05-10T02:26:26;15.40;77.10
40374;DHT22;26079;45.958;12.492;2023-05-10T02:28:54;15.40;78.60
40374;DHT22;26079;45.958;12.492;2023-05-10T02:31:20;15.30;76.20
40374;DHT22;26079;45.958;12.492;2023-05-10T02:33:48;15.20;76.50
40374;DHT22;26079;45.958;12.492;2023-05-10T02:36:15;15.20;76.40
40374;DHT22;26079;45.958;12.492;2023-05-10T02:38:41;15.10;76.30
40374;DHT22;26079;45.958;12.492;2023-05-10T02:41:09;15.10;77.20
40374;DHT22;26079;45.958;12.492;2023-05-10T02:43:37;15.00;79.70
40374;DHT22;26079;45.958;12.492;2023-05-10T02:46:03;15.00;76.10
40374;DHT22;26079;45.958;12.492;2023-05-10T02:48:29;15.00;78.60
40374;DHT22;26079;45.958;12.492;2023-05-10T02:51:00;15.00;80.40
40374;DHT22;26079;45.958;12.492;2023-05-10T02:53:31;15.00;81.70
40374;DHT22;26079;45.958;12.492;2023-05-10T02:56:00;14.90;79.20
40374;DHT22;26079;45.958;12.492;2023-05-10T02:58:26;14.80;80.80
40374;DHT22;26079;45.958;12.492;2023-05-10T03:00:52;14.70;79.90
40374;DHT22;26079;45.958;12.492;2023-05-10T03:03:19;14.60;82.20
40374;DHT22;26079;45.958;12.492;2023-05-10T03:05:45;14.50;82.70
40374;DHT22;26079;45.958;12.492;2023-05-10T03:08:11;14.40;86.40
40374;DHT22;26079;45.958;12.492;2023-05-10T03:10:50;14.30;88.60
40374;DHT22;26079;45.958;12.492;2023-05-10T03:13:33;14.20;90.40
40374;DHT22;26079;45.958;12.492;2023-05-10T03:21:11;14.00;91.60
40374;DHT22;26079;45.958;12.492;2023-05-10T03:23:47;14.00;89.90
40374;DHT22;26079;45.958;12.492;2023-05-10T03:26:19;14.00;90.00
40374;DHT22;26079;45.958;12.492;2023-05-10T03:28:47;14.00;91.00
40374;DHT22;26079;45.958;12.492;2023-05-10T03:31:14;14.00;91.30
40374;DHT22;26079;45.958;12.492;2023-05-10T03:33:47;14.00;91.50
40374;DHT22;26079;45.958;12.492;2023-05-10T03:36:13;14.00;93.20
40374;DHT22;26079;45.958;12.492;2023-05-10T03:38:39;13.90;93.30
40374;DHT22;26079;45.958;12.492;2023-05-10T03:41:05;13.90;94.80
40374;DHT22;26079;45.958;12.492;2023-05-10T03:43:30;13.90;95.90
40374;DHT22;26079;45.958;12.492;2023-05-10T03:45:56;13.90;95.40
40374;DHT22;26079;45.958;12.492;2023-05-10T03:48:21;13.90;96.50
40374;DHT22;26079;45.958;12.492;2023-05-10T03:50:47;13.90;97.00
40374;DHT22;26079;45.958;12.492;2023-05-10T03:53:14;13.90;97.90
40374;DHT22;26079;45.958;12.492;2023-05-10T03:55:40;13.90;94.90
40374;DHT22;26079;45.958;12.492;2023-05-10T03:58:06;13.90;95.50
40374;DHT22;26079;45.958;12.492;2023-05-10T04:00:31;13.80;94.20
40374;DHT22;26079;45.958;12.492;2023-05-10T04:02:58;13.80;96.80
40374;DHT22;26079;45.958;12.492;2023-05-10T04:05:23;13.80;95.50
40374;DHT22;26079;45.958;12.492;2023-05-10T04:07:49;13.80;95.80
40374;DHT22;26079;45.958;12.492;2023-05-10T04:10:16;13.90;97.40
40374;DHT22;26079;45.958;12.492;2023-05-10T04:12:43;13.90;97.30
40374;DHT22;26079;45.958;12.492;2023-05-10T04:15:08;13.90;97.10
40374;DHT22;26079;45.958;12.492;2023-05-10T04:17:34;13.80;97.30
40374;DHT22;26079;45.958;12.492;2023-05-10T04:20:00;13.80;95.80
40374;DHT22;26079;45.958;12.492;2023-05-10T04:22:26;13.80;96.20
40374;DHT22;26079;45.958;12.492;2023-05-10T04:24:53;13.80;97.60
40374;DHT22;26079;45.958;12.492;2023-05-10T04:27:18;13.80;97.50
40374;DHT22;26079;45.958;12.492;2023-05-10T04:29:44;13.80;95.90
40374;DHT22;26079;45.958;12.492;2023-05-10T04:32:09;13.80;96.50
40374;DHT22;26079;45.958;12.492;2023-05-10T04:34:36;13.90;97.60
40374;DHT22;26079;45.958;12.492;2023-05-10T04:37:01;13.90;97.00
40374;DHT22;26079;45.958;12.492;2023-05-10T04:39:27;13.90;98.00
40374;DHT22;26079;45.958;12.492;2023-05-10T04:41:53;13.90;96.90
40374;DHT22;26079;45.958;12.492;2023-05-10T04:44:18;13.90;96.10
40374;DHT22;26079;45.958;12.492;2023-05-10T04:46:44;13.90;96.60
40374;DHT22;26079;45.958;12.492;2023-05-10T04:49:09;13.90;97.50
40374;DHT22;26079;45.958;12.492;2023-05-10T04:51:35;13.90;97.90
40374;DHT22;26079;45.958;12.492;2023-05-10T04:54:01;14.00;98.90
40374;DHT22;26079;45.958;12.492;2023-05-10T04:56:26;14.00;97.80
40374;DHT22;26079;45.958;12.492;2023-05-10T04:58:52;14.10;98.70
40374;DHT22;26079;45.958;12.492;2023-05-10T05:01:18;14.00;97.20
40374;DHT22;26079;45.958;12.492;2023-05-10T05:03:43;13.90;98.00
40374;DHT22;26079;45.958;12.492;2023-05-10T05:06:09;13.90;96.10
40374;DHT22;26079;45.958;12.492;2023-05-10T05:08:35;13.90;97.60
40374;DHT22;26079;45.958;12.492;2023-05-10T05:11:00;13.90;94.20
40374;DHT22;26079;45.958;12.492;2023-05-10T05:13:26;13.90;94.60
40374;DHT22;26079;45.958;12.492;2023-05-10T05:15:52;13.90;94.70
40374;DHT22;26079;45.958;12.492;2023-05-10T05:18:17;13.90;94.00
40374;DHT22;26079;45.958;12.492;2023-05-10T05:20:43;14.00;95.20
40374;DHT22;26079;45.958;12.492;2023-05-10T05:23:08;14.10;96.10
40374;DHT22;26079;45.958;12.492;2023-05-10T05:25:34;14.00;93.90
40374;DHT22;26079;45.958;12.492;2023-05-10T05:28:00;14.10;95.10
40374;DHT22;26079;45.958;12.492;2023-05-10T05:30:26;14.00;94.90
40374;DHT22;26079;45.958;12.492;2023-05-10T05:32:52;14.00;96.40
40374;DHT22;26079;45.958;12.492;2023-05-10T05:35:18;14.00;96.00
40374;DHT22;26079;45.958;12.492;2023-05-10T05:37:44;14.00;95.60
40374;DHT22;26079;45.958;12.492;2023-05-10T05:40:13;14.00;95.80
40374;DHT22;26079;45.958;12.492;2023-05-10T05:42:39;14.00;96.80
40374;DHT22;26079;45.958;12.492;2023-05-10T05:45:05;14.10;98.20
40374;DHT22;26079;45.958;12.492;2023-05-10T05:47:31;14.20;97.60
40374;DHT22;26079;45.958;12.492;2023-05-10T05:49:57;14.20;96.40
40374;DHT22;26079;45.958;12.492;2023-05-10T05:52:23;14.30;98.10
40374;DHT22;26079;45.958;12.492;2023-05-10T05:54:48;14.40;95.70
40374;DHT22;26079;45.958;12.492;2023-05-10T05:57:14;14.50;96.10
40374;DHT22;26079;45.958;12.492;2023-05-10T05:59:40;14.60;95.30
40374;DHT22;26079;45.958;12.492;2023-05-10T06:02:09;14.60;95.70
40374;DHT22;26079;45.958;12.492;2023-05-10T06:04:35;14.70;97.40
40374;DHT22;26079;45.958;12.492;2023-05-10T06:07:01;14.80;97.70
40374;DHT22;26079;45.958;12.492;2023-05-10T06:09:26;14.80;97.10
40374;DHT22;26079;45.958;12.492;2023-05-10T06:11:52;14.90;96.70
40374;DHT22;26079;45.958;12.492;2023-05-10T06:14:20;14.90;96.10
40374;DHT22;26079;45.958;12.492;2023-05-10T06:16:45;15.00;94.80
40374;DHT22;26079;45.958;12.492;2023-05-10T06:19:11;15.10;96.10
40374;DHT22;26079;45.958;12.492;2023-05-10T06:21:37;15.20;96.10
40374;DHT22;26079;45.958;12.492;2023-05-10T06:24:03;15.30;94.80
40374;DHT22;26079;45.958;12.492;2023-05-10T06:26:29;15.30;95.90
40374;DHT22;26079;45.958;12.492;2023-05-10T06:28:54;15.40;94.10
40374;DHT22;26079;45.958;12.492;2023-05-10T06:31:20;15.30;94.30
40374;DHT22;26079;45.958;12.492;2023-05-10T06:33:46;15.30;94.70
40374;DHT22;26079;45.958;12.492;2023-05-10T06:36:12;15.20;93.30
40374;DHT22;26079;45.958;12.492;2023-05-10T06:38:38;15.20;92.30
40374;DHT22;26079;45.958;12.492;2023-05-10T06:41:04;15.20;94.00
40374;DHT22;26079;45.958;12.492;2023-05-10T06:43:29;15.20;94.10
40374;DHT22;26079;45.958;12.492;2023-05-10T06:45:55;15.30;96.00
40374;DHT22;26079;45.958;12.492;2023-05-10T06:48:21;15.30;96.30
40374;DHT22;26079;45.958;12.492;2023-05-10T06:50:46;15.30;96.30
40374;DHT22;26079;45.958;12.492;2023-05-10T06:53:12;15.30;95.50
40374;DHT22;26079;45.958;12.492;2023-05-10T06:55:39;15.30;96.20
40374;DHT22;26079;45.958;12.492;2023-05-10T06:58:04;15.20;96.30
40374;DHT22;26079;45.958;12.492;2023-05-10T07:00:30;15.20;95.70
40374;DHT22;26079;45.958;12.492;2023-05-10T07:02:56;15.20;96.40
40374;DHT22;26079;45.958;12.492;2023-05-10T07:05:21;15.20;95.50
40374;DHT22;26079;45.958;12.492;2023-05-10T07:07:47;15.20;97.10
40374;DHT22;26079;45.958;12.492;2023-05-10T07:10:13;15.20;97.70
40374;DHT22;26079;45.958;12.492;2023-05-10T07:12:39;15.20;98.80
40374;DHT22;26079;45.958;12.492;2023-05-10T07:15:05;15.20;99.90
40374;DHT22;26079;45.958;12.492;2023-05-10T07:17:31;15.20;99.90
40374;DHT22;26079;45.958;12.492;2023-05-10T07:19:58;15.10;99.90
40374;DHT22;26079;45.958;12.492;2023-05-10T07:22:24;15.10;99.90
40374;DHT22;26079;45.958;12.492;2023-05-10T07:24:50;15.10;99.90
40374;DHT22;26079;45.958;12.492;2023-05-10T07:27:15;15.10;99.70
40374;DHT22;26079;45.958;12.492;2023-05-10T07:29:41;15.10;99.90
40374;DHT22;26079;45.958;12.492;2023-05-10T07:32:07;15.00;99.50
40374;DHT22;26079;45.958;12.492;2023-05-10T07:34:33;14.90;98.40
40374;DHT22;26079;45.958;12.492;2023-05-10T07:36:59;14.80;99.90
40374;DHT22;26079;45.958;12.492;2023-05-10T07:39:25;14.80;99.60
40374;DHT22;26079;45.958;12.492;2023-05-10T07:41:51;14.70;98.70
40374;DHT22;26079;45.958;12.492;2023-05-10T07:44:16;14.70;99.90
40374;DHT22;26079;45.958;12.492;2023-05-10T07:46:44;14.70;99.90
40374;DHT22;26079;45.958;12.492;2023-05-10T07:49:10;14.80;99.90
40374;DHT22;26079;45.958;12.492;2023-05-10T07:51:35;14.80;99.90
40374;DHT22;26079;45.958;12.492;2023-05-10T07:54:01;14.80;99.90
40374;DHT22;26079;45.958;12.492;2023-05-10T07:56:30;14.80;99.90
40374;DHT22;26079;45.958;12.492;2023-05-10T07:59:00;14.80;99.90
40374;DHT22;26079;45.958;12.492;2023-05-10T08:01:29;14.80;99.90
40374;DHT22;26079;45.958;12.492;2023-05-10T08:03:55;14.80;99.90
40374;DHT22;26079;45.958;12.492;2023-05-10T08:06:20;14.80;99.90
40374;DHT22;26079;45.958;12.492;2023-05-10T08:08:47;14.80;99.90
40374;DHT22;26079;45.958;12.492;2023-05-10T08:11:16;14.70;98.50
40374;DHT22;26079;45.958;12.492;2023-05-10T08:13:43;14.70;96.70
40374;DHT22;26079;45.958;12.492;2023-05-10T08:16:08;14.50;94.00
40374;DHT22;26079;45.958;12.492;2023-05-10T08:18:34;14.40;92.00
40374;DHT22;26079;45.958;12.492;2023-05-10T08:21:00;14.20;92.30
40374;DHT22;26079;45.958;12.492;2023-05-10T08:23:25;14.10;94.50
40374;DHT22;26079;45.958;12.492;2023-05-10T08:25:51;14.00;95.40
40374;DHT22;26079;45.958;12.492;2023-05-10T08:28:17;14.00;95.10
40374;DHT22;26079;45.958;12.492;2023-05-10T08:30:42;13.90;95.50
40374;DHT22;26079;45.958;12.492;2023-05-10T08:33:08;13.90;96.00
40374;DHT22;26079;45.958;12.492;2023-05-10T08:35:33;13.90;97.90
40374;DHT22;26079;45.958;12.492;2023-05-10T08:38:00;13.80;95.90
40374;DHT22;26079;45.958;12.492;2023-05-10T08:40:26;13.80;94.80
40374;DHT22;26079;45.958;12.492;2023-05-10T08:43:06;13.80;98.30
40374;DHT22;26079;45.958;12.492;2023-05-10T08:45:40;13.80;99.30
40374;DHT22;26079;45.958;12.492;2023-05-10T08:48:10;13.80;98.50
40374;DHT22;26079;45.958;12.492;2023-05-10T08:50:41;13.80;99.30
40374;DHT22;26079;45.958;12.492;2023-05-10T08:53:12;13.80;99.90
40374;DHT22;26079;45.958;12.492;2023-05-10T08:55:39;13.80;99.90
40374;DHT22;26079;45.958;12.492;2023-05-10T08:58:06;13.80;99.90
40374;DHT22;26079;45.958;12.492;2023-05-10T09:00:32;13.80;99.90
40374;DHT22;26079;45.958;12.492;2023-05-10T09:02:59;13.90;99.90
40374;DHT22;26079;45.958;12.492;2023-05-10T09:05:25;13.90;99.90
40374;DHT22;26079;45.958;12.492;2023-05-10T09:07:51;13.90;99.90
40374;DHT22;26079;45.958;12.492;2023-05-10T09:10:18;13.90;99.90
40374;DHT22;26079;45.958;12.492;2023-05-10T09:12:44;13.80;99.70
40374;DHT22;26079;45.958;12.492;2023-05-10T09:15:15;13.80;99.90
40374;DHT22;26079;45.958;12.492;2023-05-10T09:17:42;13.80;99.90
40374;DHT22;26079;45.958;12.492;2023-05-10T09:20:09;13.80;99.90
40374;DHT22;26079;45.958;12.492;2023-05-10T09:22:35;13.90;99.90
40374;DHT22;26079;45.958;12.492;2023-05-10T09:25:27;13.90;99.90
40374;DHT22;26079;45.958;12.492;2023-05-10T09:27:53;14.00;99.90
40374;DHT22;26079;45.958;12.492;2023-05-10T09:30:29;13.90;99.80
40374;DHT22;26079;45.958;12.492;2023-05-10T09:32:57;13.90;99.90
40374;DHT22;26079;45.958;12.492;2023-05-10T09:35:24;13.90;99.90
40374;DHT22;26079;45.958;12.492;2023-05-10T09:37:53;13.90;99.90
40374;DHT22;26079;45.958;12.492;2023-05-10T09:40:24;14.00;99.90
40374;DHT22;26079;45.958;12.492;2023-05-10T09:43:08;14.00;99.90
40374;DHT22;26079;45.958;12.492;2023-05-10T09:45:34;14.00;99.90
40374;DHT22;26079;45.958;12.492;2023-05-10T09:48:01;14.00;99.90
40374;DHT22;26079;45.958;12.492;2023-05-10T09:50:28;13.90;99.90
40374;DHT22;26079;45.958;12.492;2023-05-10T09:53:02;13.80;99.90
40374;DHT22;26079;45.958;12.492;2023-05-10T09:55:42;13.70;99.90
40374;DHT22;26079;45.958;12.492;2023-05-10T09:58:12;13.70;99.90
40374;DHT22;26079;45.958;12.492;2023-05-10T10:00:40;13.60;99.90
40374;DHT22;26079;45.958;12.492;2023-05-10T10:03:11;13.60;99.90
40374;DHT22;26079;45.958;12.492;2023-05-10T10:05:40;13.60;99.90
40374;DHT22;26079;45.958;12.492;2023-05-10T10:08:06;13.70;99.90
40374;DHT22;26079;45.958;12.492;2023-05-10T10:10:33;13.60;99.90
40374;DHT22;26079;45.958;12.492;2023-05-10T10:12:59;13.50;99.90
40374;DHT22;26079;45.958;12.492;2023-05-10T10:15:25;13.40;99.90
40374;DHT22;26079;45.958;12.492;2023-05-10T10:17:52;13.40;99.90
40374;DHT22;26079;45.958;12.492;2023-05-10T10:20:20;13.40;99.90
40374;DHT22;26079;45.958;12.492;2023-05-10T10:22:46;13.40;99.90
40374;DHT22;26079;45.958;12.492;2023-05-10T10:25:13;13.40;99.90
40374;DHT22;26079;45.958;12.492;2023-05-10T10:33:39;13.50;99.90
40374;DHT22;26079;45.958;12.492;2023-05-10T10:36:06;13.50;99.90
40374;DHT22;26079;45.958;12.492;2023-05-10T10:41:36;13.50;99.90
40374;DHT22;26079;45.958;12.492;2023-05-10T10:50:03;13.40;99.90
40374;DHT22;26079;45.958;12.492;2023-05-10T10:55:06;13.40;99.90
40374;DHT22;26079;45.958;12.492;2023-05-10T10:57:33;13.30;99.90
40374;DHT22;26079;45.958;12.492;2023-05-10T11:00:30;13.30;99.90
40374;DHT22;26079;45.958;12.492;2023-05-10T11:05:48;13.30;99.90
40374;DHT22;26079;45.958;12.492;2023-05-10T11:08:16;13.30;99.90
40374;DHT22;26079;45.958;12.492;2023-05-10T11:10:54;13.30;99.90
40374;DHT22;26079;45.958;12.492;2023-05-10T11:13:37;13.40;99.90
40374;DHT22;26079;45.958;12.492;2023-05-10T11:18:36;13.40;99.90
40374;DHT22;26079;45.958;12.492;2023-05-10T11:21:02;13.50;99.90
40374;DHT22;26079;45.958;12.492;2023-05-10T11:26:08;13.30;99.90
40374;DHT22;26079;45.958;12.492;2023-05-10T11:28:45;13.30;99.90
40374;DHT22;26079;45.958;12.492;2023-05-10T11:31:16;13.20;99.90
40374;DHT22;26079;45.958;12.492;2023-05-10T11:33:50;13.10;99.90
40374;DHT22;26079;45.958;12.492;2023-05-10T11:36:23;13.20;99.90
40374;DHT22;26079;45.958;12.492;2023-05-10T11:38:49;13.20;99.90
40374;DHT22;26079;45.958;12.492;2023-05-10T11:41:16;13.20;99.90
40374;DHT22;26079;45.958;12.492;2023-05-10T11:43:42;13.10;99.90
40374;DHT22;26079;45.958;12.492;2023-05-10T11:46:13;13.20;99.90
40374;DHT22;26079;45.958;12.492;2023-05-10T11:48:40;13.10;99.90
40374;DHT22;26079;45.958;12.492;2023-05-10T11:51:10;13.10;99.90
40374;DHT22;26079;45.958;12.492;2023-05-10T11:53:36;13.10;99.90
40374;DHT22;26079;45.958;12.492;2023-05-10T11:56:09;13.10;99.90
40374;DHT22;26079;45.958;12.492;2023-05-10T11:58:36;13.20;99.90
40374;DHT22;26079;45.958;12.492;2023-05-10T12:01:03;13.20;99.90
40374;DHT22;26079;45.958;12.492;2023-05-10T12:03:30;13.30;99.90
40374;DHT22;26079;45.958;12.492;2023-05-10T12:05:56;13.40;99.90
40374;DHT22;26079;45.958;12.492;2023-05-10T12:08:24;13.40;99.90
40374;DHT22;26079;45.958;12.492;2023-05-10T12:10:51;13.30;99.90
40374;DHT22;26079;45.958;12.492;2023-05-10T12:13:17;13.20;99.90
40374;DHT22;26079;45.958;12.492;2023-05-10T12:15:43;13.20;99.90
40374;DHT22;26079;45.958;12.492;2023-05-10T12:18:13;13.30;99.90
40374;DHT22;26079;45.958;12.492;2023-05-10T12:20:39;13.30;99.90
40374;DHT22;26079;45.958;12.492;2023-05-10T12:23:05;13.30;99.90
40374;DHT22;26079;45.958;12.492;2023-05-10T12:25:33;13.30;99.90
40374;DHT22;26079;45.958;12.492;2023-05-10T12:28:00;13.30;99.90
40374;DHT22;26079;45.958;12.492;2023-05-10T12:30:29;13.40;99.90
40374;DHT22;26079;45.958;12.492;2023-05-10T12:33:15;13.40;99.90
40374;DHT22;26079;45.958;12.492;2023-05-10T12:35:50;13.50;99.90
40374;DHT22;26079;45.958;12.492;2023-05-10T12:40:58;13.40;99.90
40374;DHT22;26079;45.958;12.492;2023-05-10T12:43:23;13.50;99.90
40374;DHT22;26079;45.958;12.492;2023-05-10T12:45:49;13.50;99.90
40374;DHT22;26079;45.958;12.492;2023-05-10T12:48:15;13.50;99.90
40374;DHT22;26079;45.958;12.492;2023-05-10T12:50:41;13.50;99.90
40374;DHT22;26079;45.958;12.492;2023-05-10T12:53:06;13.50;99.90
40374;DHT22;26079;45.958;12.492;2023-05-10T12:55:32;13.50;99.90
40374;DHT22;26079;45.958;12.492;2023-05-10T12:57:58;13.60;99.90
40374;DHT22;26079;45.958;12.492;2023-05-10T13:00:24;13.60;99.90
40374;DHT22;26079;45.958;12.492;2023-05-10T13:02:56;13.60;99.90
40374;DHT22;26079;45.958;12.492;2023-05-10T13:05:22;13.60;99.90
40374;DHT22;26079;45.958;12.492;2023-05-10T13:07:48;13.50;99.90
40374;DHT22;26079;45.958;12.492;2023-05-10T13:10:13;13.40;99.90
40374;DHT22;26079;45.958;12.492;2023-05-10T13:12:39;13.40;99.90
40374;DHT22;26079;45.958;12.492;2023-05-10T13:15:06;13.30;99.90
40374;DHT22;26079;45.958;12.492;2023-05-10T13:17:32;13.30;99.90
40374;DHT22;26079;45.958;12.492;2023-05-10T13:19:57;13.30;99.90
40374;DHT22;26079;45.958;12.492;2023-05-10T13:22:23;13.30;99.90
40374;DHT22;26079;45.958;12.492;2023-05-10T13:24:48;13.30;99.90
40374;DHT22;26079;45.958;12.492;2023-05-10T13:27:14;13.30;99.90
40374;DHT22;26079;45.958;12.492;2023-05-10T13:29:40;13.40;99.90
40374;DHT22;26079;45.958;12.492;2023-05-10T13:32:06;13.40;99.90
40374;DHT22;26079;45.958;12.492;2023-05-10T13:34:32;13.40;99.90
40374;DHT22;26079;45.958;12.492;2023-05-10T13:36:57;13.40;99.90
40374;DHT22;26079;45.958;12.492;2023-05-10T13:39:23;13.30;99.90
40374;DHT22;26079;45.958;12.492;2023-05-10T13:41:49;13.40;99.90
40374;DHT22;26079;45.958;12.492;2023-05-10T13:44:14;13.40;99.90
40374;DHT22;26079;45.958;12.492;2023-05-10T13:46:41;13.50;99.90
40374;DHT22;26079;45.958;12.492;2023-05-10T13:49:08;13.40;99.90
40374;DHT22;26079;45.958;12.492;2023-05-10T13:51:35;13.40;99.90
40374;DHT22;26079;45.958;12.492;2023-05-10T13:54:02;13.50;99.90
40374;DHT22;26079;45.958;12.492;2023-05-10T13:56:27;13.40;99.90
40374;DHT22;26079;45.958;12.492;2023-05-10T13:58:53;13.40;99.90
40374;DHT22;26079;45.958;12.492;2023-05-10T14:01:19;13.40;99.90
40374;DHT22;26079;45.958;12.492;2023-05-10T14:03:45;13.50;99.90
40374;DHT22;26079;45.958;12.492;2023-05-10T14:06:10;13.50;99.90
40374;DHT22;26079;45.958;12.492;2023-05-10T14:08:36;13.50;99.90
40374;DHT22;26079;45.958;12.492;2023-05-10T14:11:02;13.50;99.90
40374;DHT22;26079;45.958;12.492;2023-05-10T14:13:28;13.50;99.90
40374;DHT22;26079;45.958;12.492;2023-05-10T14:15:54;13.60;99.90
40374;DHT22;26079;45.958;12.492;2023-05-10T14:18:20;13.60;99.90
40374;DHT22;26079;45.958;12.492;2023-05-10T14:20:46;13.60;99.90
40374;DHT22;26079;45.958;12.492;2023-05-10T14:23:12;13.60;99.90
40374;DHT22;26079;45.958;12.492;2023-05-10T14:25:39;13.60;99.90
40374;DHT22;26079;45.958;12.492;2023-05-10T14:28:05;13.60;99.90
40374;DHT22;26079;45.958;12.492;2023-05-10T14:30:31;13.60;99.90
40374;DHT22;26079;45.958;12.492;2023-05-10T14:32:58;13.60;99.90
40374;DHT22;26079;45.958;12.492;2023-05-10T14:35:23;13.60;99.90
40374;DHT22;26079;45.958;12.492;2023-05-10T14:37:50;13.60;99.90
40374;DHT22;26079;45.958;12.492;2023-05-10T14:40:16;13.70;99.90
40374;DHT22;26079;45.958;12.492;2023-05-10T14:42:42;13.70;99.90
40374;DHT22;26079;45.958;12.492;2023-05-10T14:45:09;13.70;99.90
40374;DHT22;26079;45.958;12.492;2023-05-10T14:47:35;13.70;99.90
40374;DHT22;26079;45.958;12.492;2023-05-10T14:50:01;13.70;99.90
40374;DHT22;26079;45.958;12.492;2023-05-10T14:52:27;13.70;99.90
40374;DHT22;26079;45.958;12.492;2023-05-10T14:54:53;13.60;99.90
40374;DHT22;26079;45.958;12.492;2023-05-10T14:57:18;13.60;99.90
40374;DHT22;26079;45.958;12.492;2023-05-10T14:59:45;13.70;99.90
40374;DHT22;26079;45.958;12.492;2023-05-10T15:02:10;13.70;99.90
40374;DHT22;26079;45.958;12.492;2023-05-10T15:04:36;13.70;99.90
40374;DHT22;26079;45.958;12.492;2023-05-10T15:07:02;13.60;99.90
40374;DHT22;26079;45.958;12.492;2023-05-10T15:09:28;13.70;99.90
40374;DHT22;26079;45.958;12.492;2023-05-10T15:11:54;13.70;99.90
40374;DHT22;26079;45.958;12.492;2023-05-10T15:14:20;13.70;99.90
40374;DHT22;26079;45.958;12.492;2023-05-10T15:16:46;13.60;99.90
40374;DHT22;26079;45.958;12.492;2023-05-10T15:19:12;13.60;99.90
40374;DHT22;26079;45.958;12.492;2023-05-10T15:21:38;13.60;99.90
40374;DHT22;26079;45.958;12.492;2023-05-10T15:24:07;13.60;99.90
40374;DHT22;26079;45.958;12.492;2023-05-10T15:26:33;13.60;99.90
40374;DHT22;26079;45.958;12.492;2023-05-10T15:28:59;13.60;99.90
40374;DHT22;26079;45.958;12.492;2023-05-10T15:31:24;13.60;99.90
40374;DHT22;26079;45.958;12.492;2023-05-10T15:33:50;13.50;99.90
40374;DHT22;26079;45.958;12.492;2023-05-10T15:36:16;13.60;99.90
40374;DHT22;26079;45.958;12.492;2023-05-10T15:38:43;13.60;99.90
40374;DHT22;26079;45.958;12.492;2023-05-10T15:41:09;13.50;99.90
40374;DHT22;26079;45.958;12.492;2023-05-10T15:43:35;13.50;99.90
40374;DHT22;26079;45.958;12.492;2023-05-10T15:46:01;13.50;99.90
40374;DHT22;26079;45.958;12.492;2023-05-10T15:48:27;13.50;99.90
40374;DHT22;26079;45.958;12.492;2023-05-10T15:50:52;13.50;99.90
40374;DHT22;26079;45.958;12.492;2023-05-10T15:53:18;13.50;99.90
40374;DHT22;26079;45.958;12.492;2023-05-10T15:55:43;13.60;99.90
40374;DHT22;26079;45.958;12.492;2023-05-10T15:58:09;13.60;99.90
40374;DHT22;26079;45.958;12.492;2023-05-10T16:00:35;13.60;99.90
40374;DHT22;26079;45.958;12.492;2023-05-10T16:03:01;13.60;99.90
40374;DHT22;26079;45.958;12.492;2023-05-10T16:05:27;13.60;99.90